sensor_id;sensor_type;location;lat;lon;timestamp;P1;durP1;ratioP1;P2;durP2;ratioP2
7647;SDS011;3866;48.020;11.720;2024-03-23T00:54:14;2.30;;;1.60;;
7647;SDS011;3866;48.020;11.720;2024-03-23T00:56:40;1.70;;;1.60;;
7647;SDS011;3866;48.020;11.720;2024-03-23T00:59:06;1.70;;;1.60;;
7647;SDS011;3866;48.020;11.720;2024-03-23T01:01:33;3.03;;;2.00;;
7647;SDS011;3866;48.020;11.720;2024-03-23T01:03:59;1.90;;;1.70;;
7647;SDS011;3866;48.020;11.720;2024-03-23T01:06:26;1.60;;;1.50;;
7647;SDS011;3866;48.020;11.720;2024-03-23T01:08:52;3.43;;;1.87;;
7647;SDS011;3866;48.020;11.720;2024-03-23T01:11:23;2.63;;;1.90;;
7647;SDS011;3866;48.020;11.720;2024-03-23T01:13:50;2.37;;;1.80;;
7647;SDS011;3866;48.020;11.720;2024-03-23T01:16:20;2.63;;;1.70;;
7647;SDS011;3866;48.020;11.720;2024-03-23T01:18:45;3.50;;;1.80;;
7647;SDS011;3866;48.020;11.720;2024-03-23T01:21:13;2.33;;;1.63;;
7647;SDS011;3866;48.020;11.720;2024-03-23T01:23:39;3.17;;;1.80;;
7647;SDS011;3866;48.020;11.720;2024-03-23T01:26:05;3.07;;;1.67;;
7647;SDS011;3866;48.020;11.720;2024-03-23T01:28:33;2.37;;;1.97;;
7647;SDS011;3866;48.020;11.720;2024-03-23T01:31:00;2.20;;;1.83;;
7647;SDS011;3866;48.020;11.720;2024-03-23T01:33:25;2.77;;;1.57;;
7647;SDS011;3866;48.020;11.720;2024-03-23T01:35:52;1.77;;;1.67;;
7647;SDS011;3866;48.020;11.720;2024-03-23T01:38:18;1.73;;;1.63;;
7647;SDS011;3866;48.020;11.720;2024-03-23T01:40:45;3.00;;;1.83;;
7647;SDS011;3866;48.020;11.720;2024-03-23T01:43:11;2.40;;;1.80;;
7647;SDS011;3866;48.020;11.720;2024-03-23T01:45:39;1.50;;;1.40;;
7647;SDS011;3866;48.020;11.720;2024-03-23T01:48:05;3.00;;;1.70;;
7647;SDS011;3866;48.020;11.720;2024-03-23T01:50:34;1.90;;;1.80;;
7647;SDS011;3866;48.020;11.720;2024-03-23T01:53:00;1.77;;;1.53;;
7647;SDS011;3866;48.020;11.720;2024-03-23T01:55:30;2.43;;;1.80;;
7647;SDS011;3866;48.020;11.720;2024-03-23T01:57:57;3.90;;;1.90;;
7647;SDS011;3866;48.020;11.720;2024-03-23T02:00:24;2.53;;;2.00;;
7647;SDS011;3866;48.020;11.720;2024-03-23T02:02:52;2.53;;;1.70;;
7647;SDS011;3866;48.020;11.720;2024-03-23T02:05:18;1.67;;;1.57;;
7647;SDS011;3866;48.020;11.720;2024-03-23T02:07:44;2.83;;;1.80;;
7647;SDS011;3866;48.020;11.720;2024-03-23T02:10:11;2.00;;;1.80;;
7647;SDS011;3866;48.020;11.720;2024-03-23T02:12:38;1.90;;;1.80;;
7647;SDS011;3866;48.020;11.720;2024-03-23T02:15:05;2.23;;;1.83;;
7647;SDS011;3866;48.020;11.720;2024-03-23T02:17:33;2.27;;;2.07;;
7647;SDS011;3866;48.020;11.720;2024-03-23T02:20:02;3.47;;;1.83;;
7647;SDS011;3866;48.020;11.720;2024-03-23T02:22:35;2.27;;;1.43;;
7647;SDS011;3866;48.020;11.720;2024-03-23T02:25:04;2.27;;;1.87;;
7647;SDS011;3866;48.020;11.720;2024-03-23T02:27:31;2.13;;;1.80;;
7647;SDS011;3866;48.020;11.720;2024-03-23T02:29:58;3.20;;;1.63;;
7647;SDS011;3866;48.020;11.720;2024-03-23T02:32:24;1.30;;;1.20;;
7647;SDS011;3866;48.020;11.720;2024-03-23T02:34:51;2.90;;;1.97;;
7647;SDS011;3866;48.020;11.720;2024-03-23T02:37:17;1.87;;;1.77;;
7647;SDS011;3866;48.020;11.720;2024-03-23T02:39:44;2.30;;;1.60;;
7647;SDS011;3866;48.020;11.720;2024-03-23T02:42:11;2.27;;;1.87;;
7647;SDS011;3866;48.020;11.720;2024-03-23T02:44:38;2.83;;;1.93;;
7647;SDS011;3866;48.020;11.720;2024-03-23T02:47:04;2.80;;;1.57;;
7647;SDS011;3866;48.020;11.720;2024-03-23T02:49:31;1.73;;;1.47;;
7647;SDS011;3866;48.020;11.720;2024-03-23T02:51:57;1.70;;;1.60;;
7647;SDS011;3866;48.020;11.720;2024-03-23T02:54:24;1.27;;;1.17;;
7647;SDS011;3866;48.020;11.720;2024-03-23T02:56:50;3.70;;;1.80;;
7647;SDS011;3866;48.020;11.720;2024-03-23T02:59:18;2.87;;;1.50;;
7647;SDS011;3866;48.020;11.720;2024-03-23T03:01:44;1.87;;;1.07;;
7647;SDS011;3866;48.020;11.720;2024-03-23T03:04:11;4.40;;;2.07;;
7647;SDS011;3866;48.020;11.720;2024-03-23T03:06:36;2.20;;;1.07;;
7647;SDS011;3866;48.020;11.720;2024-03-23T03:09:03;2.23;;;1.50;;
7647;SDS011;3866;48.020;11.720;2024-03-23T03:11:29;1.87;;;1.13;;
7647;SDS011;3866;48.020;11.720;2024-03-23T03:13:56;1.30;;;1.20;;
7647;SDS011;3866;48.020;11.720;2024-03-23T03:16:26;2.83;;;1.20;;
7647;SDS011;3866;48.020;11.720;2024-03-23T03:18:53;1.20;;;1.20;;
7647;SDS011;3866;48.020;11.720;2024-03-23T03:21:19;1.30;;;1.20;;
7647;SDS011;3866;48.020;11.720;2024-03-23T03:23:47;3.13;;;1.33;;
7647;SDS011;3866;48.020;11.720;2024-03-23T03:26:15;3.77;;;1.63;;
7647;SDS011;3866;48.020;11.720;2024-03-23T03:28:42;3.50;;;1.27;;
7647;SDS011;3866;48.020;11.720;2024-03-23T03:31:08;2.30;;;1.63;;
7647;SDS011;3866;48.020;11.720;2024-03-23T03:33:39;1.77;;;1.10;;
7647;SDS011;3866;48.020;11.720;2024-03-23T03:36:05;2.43;;;1.60;;
7647;SDS011;3866;48.020;11.720;2024-03-23T03:38:32;1.83;;;1.53;;
7647;SDS011;3866;48.020;11.720;2024-03-23T03:41:00;1.77;;;1.50;;
7647;SDS011;3866;48.020;11.720;2024-03-23T03:43:27;1.20;;;1.10;;
7647;SDS011;3866;48.020;11.720;2024-03-23T03:45:53;1.40;;;1.30;;
7647;SDS011;3866;48.020;11.720;2024-03-23T03:48:21;1.93;;;1.23;;
7647;SDS011;3866;48.020;11.720;2024-03-23T03:50:48;1.23;;;0.93;;
7647;SDS011;3866;48.020;11.720;2024-03-23T03:53:15;1.50;;;1.20;;
7647;SDS011;3866;48.020;11.720;2024-03-23T03:55:41;2.37;;;1.40;;
7647;SDS011;3866;48.020;11.720;2024-03-23T03:58:08;1.43;;;1.27;;
7647;SDS011;3866;48.020;11.720;2024-03-23T04:00:34;2.70;;;1.57;;
7647;SDS011;3866;48.020;11.720;2024-03-23T04:03:01;1.37;;;1.13;;
7647;SDS011;3866;48.020;11.720;2024-03-23T04:05:27;1.37;;;1.27;;
7647;SDS011;3866;48.020;11.720;2024-03-23T04:07:55;1.33;;;1.20;;
7647;SDS011;3866;48.020;11.720;2024-03-23T04:10:21;2.40;;;1.00;;
7647;SDS011;3866;48.020;11.720;2024-03-23T04:12:48;1.53;;;1.20;;
7647;SDS011;3866;48.020;11.720;2024-03-23T04:15:14;2.70;;;1.30;;
7647;SDS011;3866;48.020;11.720;2024-03-23T04:17:41;3.07;;;1.00;;
7647;SDS011;3866;48.020;11.720;2024-03-23T04:20:08;1.40;;;1.20;;
7647;SDS011;3866;48.020;11.720;2024-03-23T04:22:36;3.80;;;1.20;;
7647;SDS011;3866;48.020;11.720;2024-03-23T04:25:04;1.60;;;1.30;;
7647;SDS011;3866;48.020;11.720;2024-03-23T04:27:31;1.40;;;1.30;;
7647;SDS011;3866;48.020;11.720;2024-03-23T04:29:57;1.53;;;1.00;;
7647;SDS011;3866;48.020;11.720;2024-03-23T04:32:26;1.13;;;1.03;;
7647;SDS011;3866;48.020;11.720;2024-03-23T04:34:52;1.37;;;1.23;;
7647;SDS011;3866;48.020;11.720;2024-03-23T04:37:19;1.93;;;1.30;;
7647;SDS011;3866;48.020;11.720;2024-03-23T04:39:46;1.63;;;1.10;;
7647;SDS011;3866;48.020;11.720;2024-03-23T04:42:15;1.20;;;1.10;;
7647;SDS011;3866;48.020;11.720;2024-03-23T04:44:42;1.20;;;1.10;;
7647;SDS011;3866;48.020;11.720;2024-03-23T04:47:10;1.43;;;1.17;;
7647;SDS011;3866;48.020;11.720;2024-03-23T04:49:37;1.53;;;1.20;;
7647;SDS011;3866;48.020;11.720;2024-03-23T04:52:04;1.47;;;1.10;;
7647;SDS011;3866;48.020;11.720;2024-03-23T04:54:36;1.37;;;0.90;;
7647;SDS011;3866;48.020;11.720;2024-03-23T04:57:05;1.13;;;0.90;;
7647;SDS011;3866;48.020;11.720;2024-03-23T04:59:32;1.43;;;1.10;;
7647;SDS011;3866;48.020;11.720;2024-03-23T05:01:59;1.87;;;1.00;;
7647;SDS011;3866;48.020;11.720;2024-03-23T05:04:27;1.80;;;0.93;;
7647;SDS011;3866;48.020;11.720;2024-03-23T05:06:53;1.30;;;1.13;;
7647;SDS011;3866;48.020;11.720;2024-03-23T05:09:20;2.90;;;1.03;;
7647;SDS011;3866;48.020;11.720;2024-03-23T05:11:46;1.60;;;0.83;;
7647;SDS011;3866;48.020;11.720;2024-03-23T05:14:13;2.23;;;1.10;;
7647;SDS011;3866;48.020;11.720;2024-03-23T05:16:40;1.20;;;1.10;;
7647;SDS011;3866;48.020;11.720;2024-03-23T05:19:07;2.00;;;0.80;;
7647;SDS011;3866;48.020;11.720;2024-03-23T05:21:33;2.03;;;1.73;;
7647;SDS011;3866;48.020;11.720;2024-03-23T05:24:00;1.40;;;1.00;;
7647;SDS011;3866;48.020;11.720;2024-03-23T05:26:26;3.90;;;1.13;;
7647;SDS011;3866;48.020;11.720;2024-03-23T05:28:54;1.10;;;1.00;;
7647;SDS011;3866;48.020;11.720;2024-03-23T05:31:22;1.67;;;0.80;;
7647;SDS011;3866;48.020;11.720;2024-03-23T05:33:51;1.87;;;1.10;;
7647;SDS011;3866;48.020;11.720;2024-03-23T05:36:17;1.30;;;1.20;;
7647;SDS011;3866;48.020;11.720;2024-03-23T05:38:44;0.60;;;0.60;;
7647;SDS011;3866;48.020;11.720;2024-03-23T05:41:10;2.10;;;1.10;;
7647;SDS011;3866;48.020;11.720;2024-03-23T05:43:37;1.17;;;0.90;;
7647;SDS011;3866;48.020;11.720;2024-03-23T05:46:03;1.00;;;0.90;;
7647;SDS011;3866;48.020;11.720;2024-03-23T05:48:31;2.00;;;1.10;;
7647;SDS011;3866;48.020;11.720;2024-03-23T05:50:58;1.03;;;0.90;;
7647;SDS011;3866;48.020;11.720;2024-03-23T05:53:25;1.90;;;0.80;;
7647;SDS011;3866;48.020;11.720;2024-03-23T05:55:59;1.27;;;0.90;;
7647;SDS011;3866;48.020;11.720;2024-03-23T05:58:28;0.93;;;0.93;;
7647;SDS011;3866;48.020;11.720;2024-03-23T06:00:56;1.37;;;0.70;;
7647;SDS011;3866;48.020;11.720;2024-03-23T06:03:24;1.40;;;1.00;;
7647;SDS011;3866;48.020;11.720;2024-03-23T06:05:50;2.20;;;0.90;;
7647;SDS011;3866;48.020;11.720;2024-03-23T06:08:19;1.40;;;0.90;;
7647;SDS011;3866;48.020;11.720;2024-03-23T06:10:45;0.80;;;0.80;;
7647;SDS011;3866;48.020;11.720;2024-03-23T06:13:12;0.83;;;0.50;;
7647;SDS011;3866;48.020;11.720;2024-03-23T06:15:38;0.80;;;0.80;;
7647;SDS011;3866;48.020;11.720;2024-03-23T06:18:05;1.40;;;0.87;;
7647;SDS011;3866;48.020;11.720;2024-03-23T06:20:32;1.83;;;0.60;;
7647;SDS011;3866;48.020;11.720;2024-03-23T06:23:00;1.53;;;0.80;;
7647;SDS011;3866;48.020;11.720;2024-03-23T06:25:27;1.20;;;0.97;;
7647;SDS011;3866;48.020;11.720;2024-03-23T06:27:54;2.20;;;0.83;;
7647;SDS011;3866;48.020;11.720;2024-03-23T06:30:20;0.70;;;0.70;;
7647;SDS011;3866;48.020;11.720;2024-03-23T06:32:47;0.87;;;0.87;;
7647;SDS011;3866;48.020;11.720;2024-03-23T06:35:13;0.90;;;0.90;;
7647;SDS011;3866;48.020;11.720;2024-03-23T06:37:40;0.83;;;0.67;;
7647;SDS011;3866;48.020;11.720;2024-03-23T06:40:06;0.93;;;0.70;;
7647;SDS011;3866;48.020;11.720;2024-03-23T06:42:36;2.67;;;0.87;;
7647;SDS011;3866;48.020;11.720;2024-03-23T06:45:02;1.50;;;0.90;;
7647;SDS011;3866;48.020;11.720;2024-03-23T06:47:29;0.70;;;0.70;;
7647;SDS011;3866;48.020;11.720;2024-03-23T06:49:55;1.17;;;0.77;;
7647;SDS011;3866;48.020;11.720;2024-03-23T06:52:22;1.40;;;0.50;;
7647;SDS011;3866;48.020;11.720;2024-03-23T06:54:48;1.37;;;0.67;;
7647;SDS011;3866;48.020;11.720;2024-03-23T06:57:18;0.60;;;0.50;;
7647;SDS011;3866;48.020;11.720;2024-03-23T06:59:45;0.90;;;0.80;;
7647;SDS011;3866;48.020;11.720;2024-03-23T07:02:12;2.53;;;0.80;;
7647;SDS011;3866;48.020;11.720;2024-03-23T07:04:38;0.97;;;0.60;;
7647;SDS011;3866;48.020;11.720;2024-03-23T07:07:05;1.33;;;0.80;;
7647;SDS011;3866;48.020;11.720;2024-03-23T07:09:31;1.20;;;0.60;;
7647;SDS011;3866;48.020;11.720;2024-03-23T07:11:58;1.80;;;0.60;;
7647;SDS011;3866;48.020;11.720;2024-03-23T07:14:24;0.67;;;0.63;;
7647;SDS011;3866;48.020;11.720;2024-03-23T07:16:52;1.93;;;0.70;;
7647;SDS011;3866;48.020;11.720;2024-03-23T07:19:18;1.13;;;0.60;;
7647;SDS011;3866;48.020;11.720;2024-03-23T07:21:45;1.33;;;0.80;;
7647;SDS011;3866;48.020;11.720;2024-03-23T07:24:14;1.83;;;0.90;;
7647;SDS011;3866;48.020;11.720;2024-03-23T07:26:41;0.83;;;0.60;;
7647;SDS011;3866;48.020;11.720;2024-03-23T07:29:07;1.63;;;0.97;;
7647;SDS011;3866;48.020;11.720;2024-03-23T07:31:34;2.17;;;0.70;;
7647;SDS011;3866;48.020;11.720;2024-03-23T07:34:01;1.67;;;0.53;;
7647;SDS011;3866;48.020;11.720;2024-03-23T07:36:28;0.70;;;0.60;;
7647;SDS011;3866;48.020;11.720;2024-03-23T07:38:54;2.03;;;1.00;;
7647;SDS011;3866;48.020;11.720;2024-03-23T07:41:21;1.23;;;0.60;;
7647;SDS011;3866;48.020;11.720;2024-03-23T07:43:47;1.40;;;0.80;;
7647;SDS011;3866;48.020;11.720;2024-03-23T07:46:15;2.37;;;0.70;;
7647;SDS011;3866;48.020;11.720;2024-03-23T07:48:41;2.60;;;0.80;;
7647;SDS011;3866;48.020;11.720;2024-03-23T07:51:10;1.17;;;0.87;;
7647;SDS011;3866;48.020;11.720;2024-03-23T07:53:42;1.13;;;0.97;;
7647;SDS011;3866;48.020;11.720;2024-03-23T07:56:10;1.70;;;1.00;;
7647;SDS011;3866;48.020;11.720;2024-03-23T07:58:36;0.87;;;0.80;;
7647;SDS011;3866;48.020;11.720;2024-03-23T08:01:03;1.00;;;0.73;;
7647;SDS011;3866;48.020;11.720;2024-03-23T08:03:30;2.70;;;1.17;;
7647;SDS011;3866;48.020;11.720;2024-03-23T08:05:57;2.00;;;1.40;;
7647;SDS011;3866;48.020;11.720;2024-03-23T08:08:24;2.10;;;1.07;;
7647;SDS011;3866;48.020;11.720;2024-03-23T08:10:52;2.07;;;1.03;;
7647;SDS011;3866;48.020;11.720;2024-03-23T08:13:18;1.77;;;1.10;;
7647;SDS011;3866;48.020;11.720;2024-03-23T08:15:45;0.80;;;0.80;;
7647;SDS011;3866;48.020;11.720;2024-03-23T08:18:12;1.60;;;0.70;;
7647;SDS011;3866;48.020;11.720;2024-03-23T08:20:40;1.83;;;0.60;;
7647;SDS011;3866;48.020;11.720;2024-03-23T08:23:06;0.93;;;0.70;;
7647;SDS011;3866;48.020;11.720;2024-03-23T08:25:35;0.67;;;0.67;;
7647;SDS011;3866;48.020;11.720;2024-03-23T08:28:01;1.13;;;0.70;;
7647;SDS011;3866;48.020;11.720;2024-03-23T08:30:28;1.43;;;0.50;;
7647;SDS011;3866;48.020;11.720;2024-03-23T08:32:54;0.80;;;0.77;;
7647;SDS011;3866;48.020;11.720;2024-03-23T08:35:21;0.83;;;0.60;;
7647;SDS011;3866;48.020;11.720;2024-03-23T08:37:47;2.43;;;1.20;;
7647;SDS011;3866;48.020;11.720;2024-03-23T08:40:14;1.40;;;0.70;;
7647;SDS011;3866;48.020;11.720;2024-03-23T08:42:41;2.60;;;1.10;;
7647;SDS011;3866;48.020;11.720;2024-03-23T08:45:08;1.17;;;0.90;;
7647;SDS011;3866;48.020;11.720;2024-03-23T08:47:34;1.77;;;0.90;;
7647;SDS011;3866;48.020;11.720;2024-03-23T08:50:01;0.60;;;0.60;;
7647;SDS011;3866;48.020;11.720;2024-03-23T08:52:27;0.83;;;0.80;;
7647;SDS011;3866;48.020;11.720;2024-03-23T08:54:54;1.60;;;1.13;;
7647;SDS011;3866;48.020;11.720;2024-03-23T08:57:21;1.50;;;1.40;;
7647;SDS011;3866;48.020;11.720;2024-03-23T08:59:49;2.00;;;1.30;;
7647;SDS011;3866;48.020;11.720;2024-03-23T09:02:15;2.73;;;1.07;;
7647;SDS011;3866;48.020;11.720;2024-03-23T09:04:42;2.83;;;1.30;;
7647;SDS011;3866;48.020;11.720;2024-03-23T09:07:09;2.30;;;1.10;;
7647;SDS011;3866;48.020;11.720;2024-03-23T09:09:37;1.67;;;1.20;;
7647;SDS011;3866;48.020;11.720;2024-03-23T09:12:03;1.97;;;1.70;;
7647;SDS011;3866;48.020;11.720;2024-03-23T09:14:31;2.23;;;1.70;;
7647;SDS011;3866;48.020;11.720;2024-03-23T09:16:58;1.87;;;1.77;;
7647;SDS011;3866;48.020;11.720;2024-03-23T09:19:26;2.70;;;1.93;;
7647;SDS011;3866;48.020;11.720;2024-03-23T09:21:53;1.73;;;1.60;;
7647;SDS011;3866;48.020;11.720;2024-03-23T09:24:20;2.20;;;2.00;;
7647;SDS011;3866;48.020;11.720;2024-03-23T09:26:46;4.57;;;2.53;;
7647;SDS011;3866;48.020;11.720;2024-03-23T09:29:13;3.50;;;2.37;;
7647;SDS011;3866;48.020;11.720;2024-03-23T09:31:39;2.97;;;2.43;;
7647;SDS011;3866;48.020;11.720;2024-03-23T09:34:07;3.30;;;2.47;;
7647;SDS011;3866;48.020;11.720;2024-03-23T09:36:33;2.53;;;1.93;;
7647;SDS011;3866;48.020;11.720;2024-03-23T09:39:00;5.20;;;2.53;;
7647;SDS011;3866;48.020;11.720;2024-03-23T09:41:26;2.77;;;2.27;;
7647;SDS011;3866;48.020;11.720;2024-03-23T09:43:53;3.47;;;2.70;;
7647;SDS011;3866;48.020;11.720;2024-03-23T09:46:19;3.33;;;2.37;;
7647;SDS011;3866;48.020;11.720;2024-03-23T09:48:46;3.33;;;2.60;;
7647;SDS011;3866;48.020;11.720;2024-03-23T09:51:14;3.07;;;2.20;;
7647;SDS011;3866;48.020;11.720;2024-03-23T09:53:40;2.60;;;2.37;;
7647;SDS011;3866;48.020;11.720;2024-03-23T09:56:07;2.57;;;1.50;;
7647;SDS011;3866;48.020;11.720;2024-03-23T09:58:34;0.60;;;0.60;;
7647;SDS011;3866;48.020;11.720;2024-03-23T10:01:01;2.20;;;0.60;;
7647;SDS011;3866;48.020;11.720;2024-03-23T10:03:28;1.20;;;0.60;;
7647;SDS011;3866;48.020;11.720;2024-03-23T10:06:01;0.50;;;0.50;;
7647;SDS011;3866;48.020;11.720;2024-03-23T10:08:30;0.67;;;0.60;;
7647;SDS011;3866;48.020;11.720;2024-03-23T10:10:56;0.67;;;0.57;;
7647;SDS011;3866;48.020;11.720;2024-03-23T10:13:23;0.57;;;0.53;;
7647;SDS011;3866;48.020;11.720;2024-03-23T10:15:54;0.97;;;0.73;;
7647;SDS011;3866;48.020;11.720;2024-03-23T10:18:22;0.73;;;0.50;;
7647;SDS011;3866;48.020;11.720;2024-03-23T10:20:50;1.47;;;1.00;;
7647;SDS011;3866;48.020;11.720;2024-03-23T10:23:26;1.93;;;0.70;;
7647;SDS011;3866;48.020;11.720;2024-03-23T10:25:53;0.50;;;0.50;;
7647;SDS011;3866;48.020;11.720;2024-03-23T10:28:20;0.67;;;0.43;;
7647;SDS011;3866;48.020;11.720;2024-03-23T10:30:46;1.47;;;0.60;;
7647;SDS011;3866;48.020;11.720;2024-03-23T10:33:13;2.50;;;1.07;;
7647;SDS011;3866;48.020;11.720;2024-03-23T10:35:40;2.50;;;0.67;;
7647;SDS011;3866;48.020;11.720;2024-03-23T10:38:07;0.67;;;0.53;;
7647;SDS011;3866;48.020;11.720;2024-03-23T10:40:34;1.07;;;0.40;;
7647;SDS011;3866;48.020;11.720;2024-03-23T10:43:02;0.70;;;0.70;;
7647;SDS011;3866;48.020;11.720;2024-03-23T10:45:29;0.67;;;0.53;;
7647;SDS011;3866;48.020;11.720;2024-03-23T10:47:56;1.47;;;0.90;;
7647;SDS011;3866;48.020;11.720;2024-03-23T10:50:22;0.30;;;0.30;;
7647;SDS011;3866;48.020;11.720;2024-03-23T10:52:49;1.03;;;0.50;;
7647;SDS011;3866;48.020;11.720;2024-03-23T10:55:17;1.13;;;0.63;;
7647;SDS011;3866;48.020;11.720;2024-03-23T10:57:48;0.80;;;0.70;;
7647;SDS011;3866;48.020;11.720;2024-03-23T11:00:18;1.37;;;0.37;;
7647;SDS011;3866;48.020;11.720;2024-03-23T11:02:46;0.60;;;0.40;;
7647;SDS011;3866;48.020;11.720;2024-03-23T11:05:28;0.63;;;0.37;;
7647;SDS011;3866;48.020;11.720;2024-03-23T11:07:56;0.67;;;0.50;;
7647;SDS011;3866;48.020;11.720;2024-03-23T11:10:25;1.90;;;0.43;;
7647;SDS011;3866;48.020;11.720;2024-03-23T11:12:54;0.40;;;0.40;;
7647;SDS011;3866;48.020;11.720;2024-03-23T11:15:21;0.40;;;0.40;;
7647;SDS011;3866;48.020;11.720;2024-03-23T11:20:34;0.97;;;0.50;;
7647;SDS011;3866;48.020;11.720;2024-03-23T11:23:01;0.80;;;0.53;;
7647;SDS011;3866;48.020;11.720;2024-03-23T11:25:27;2.10;;;0.93;;
7647;SDS011;3866;48.020;11.720;2024-03-23T11:27:56;0.80;;;0.80;;
7647;SDS011;3866;48.020;11.720;2024-03-23T11:30:25;0.77;;;0.60;;
7647;SDS011;3866;48.020;11.720;2024-03-23T11:32:53;0.80;;;0.70;;
7647;SDS011;3866;48.020;11.720;2024-03-23T11:35:24;1.37;;;0.73;;
7647;SDS011;3866;48.020;11.720;2024-03-23T11:38:01;0.60;;;0.57;;
7647;SDS011;3866;48.020;11.720;2024-03-23T11:40:32;0.63;;;0.60;;
7647;SDS011;3866;48.020;11.720;2024-03-23T11:42:59;1.13;;;0.70;;
7647;SDS011;3866;48.020;11.720;2024-03-23T11:45:29;0.70;;;0.70;;
7647;SDS011;3866;48.020;11.720;2024-03-23T11:48:07;0.67;;;0.63;;
7647;SDS011;3866;48.020;11.720;2024-03-23T11:50:36;1.80;;;0.90;;
7647;SDS011;3866;48.020;11.720;2024-03-23T11:53:11;1.07;;;0.93;;
7647;SDS011;3866;48.020;11.720;2024-03-23T11:55:41;2.47;;;0.70;;
7647;SDS011;3866;48.020;11.720;2024-03-23T11:58:07;1.73;;;0.90;;
7647;SDS011;3866;48.020;11.720;2024-03-23T12:00:35;2.30;;;0.60;;
7647;SDS011;3866;48.020;11.720;2024-03-23T12:03:02;2.83;;;0.80;;
7647;SDS011;3866;48.020;11.720;2024-03-23T12:05:29;1.90;;;1.20;;
7647;SDS011;3866;48.020;11.720;2024-03-23T12:07:56;1.93;;;1.07;;
7647;SDS011;3866;48.020;11.720;2024-03-23T12:10:43;1.77;;;1.00;;
7647;SDS011;3866;48.020;11.720;2024-03-23T12:13:10;0.97;;;0.90;;
7647;SDS011;3866;48.020;11.720;2024-03-23T12:15:38;1.73;;;1.20;;
7647;SDS011;3866;48.020;11.720;2024-03-23T12:18:07;0.80;;;0.80;;
7647;SDS011;3866;48.020;11.720;2024-03-23T12:20:35;3.33;;;1.10;;
7647;SDS011;3866;48.020;11.720;2024-03-23T12:23:06;2.13;;;0.80;;
7647;SDS011;3866;48.020;11.720;2024-03-23T12:25:34;3.13;;;1.23;;
7647;SDS011;3866;48.020;11.720;2024-03-23T12:28:00;2.00;;;1.10;;
7647;SDS011;3866;48.020;11.720;2024-03-23T12:30:27;4.00;;;1.40;;
7647;SDS011;3866;48.020;11.720;2024-03-23T12:32:55;4.67;;;1.70;;
7647;SDS011;3866;48.020;11.720;2024-03-23T12:35:22;3.63;;;1.30;;
7647;SDS011;3866;48.020;11.720;2024-03-23T12:37:48;1.57;;;0.90;;
7647;SDS011;3866;48.020;11.720;2024-03-23T12:40:15;1.93;;;1.30;;
7647;SDS011;3866;48.020;11.720;2024-03-23T12:42:41;1.90;;;1.57;;
7647;SDS011;3866;48.020;11.720;2024-03-23T12:45:08;3.80;;;1.53;;
7647;SDS011;3866;48.020;11.720;2024-03-23T12:47:34;4.83;;;1.40;;
7647;SDS011;3866;48.020;11.720;2024-03-23T12:50:02;1.63;;;1.10;;
7647;SDS011;3866;48.020;11.720;2024-03-23T12:52:29;4.40;;;1.33;;
7647;SDS011;3866;48.020;11.720;2024-03-23T12:54:55;1.77;;;1.43;;
7647;SDS011;3866;48.020;11.720;2024-03-23T12:57:22;3.60;;;1.33;;
7647;SDS011;3866;48.020;11.720;2024-03-23T12:59:50;1.97;;;1.03;;
7647;SDS011;3866;48.020;11.720;2024-03-23T13:02:16;2.50;;;1.33;;
7647;SDS011;3866;48.020;11.720;2024-03-23T13:04:45;4.17;;;2.30;;
7647;SDS011;3866;48.020;11.720;2024-03-23T13:07:13;4.47;;;1.60;;
7647;SDS011;3866;48.020;11.720;2024-03-23T13:09:40;2.53;;;1.60;;
7647;SDS011;3866;48.020;11.720;2024-03-23T13:12:06;1.77;;;1.63;;
7647;SDS011;3866;48.020;11.720;2024-03-23T13:14:34;4.20;;;1.90;;
7647;SDS011;3866;48.020;11.720;2024-03-23T13:16:59;2.80;;;1.30;;
7647;SDS011;3866;48.020;11.720;2024-03-23T13:19:27;4.17;;;1.87;;
7647;SDS011;3866;48.020;11.720;2024-03-23T13:21:55;4.03;;;1.80;;
7647;SDS011;3866;48.020;11.720;2024-03-23T13:24:24;4.53;;;1.93;;
7647;SDS011;3866;48.020;11.720;2024-03-23T13:26:50;4.27;;;1.77;;
7647;SDS011;3866;48.020;11.720;2024-03-23T13:29:25;1.60;;;1.47;;
7647;SDS011;3866;48.020;11.720;2024-03-23T13:32:13;1.90;;;1.70;;
7647;SDS011;3866;48.020;11.720;2024-03-23T13:34:40;6.07;;;1.97;;
7647;SDS011;3866;48.020;11.720;2024-03-23T13:37:06;4.67;;;2.20;;
7647;SDS011;3866;48.020;11.720;2024-03-23T13:39:36;3.07;;;2.10;;
7647;SDS011;3866;48.020;11.720;2024-03-23T13:42:02;4.80;;;2.30;;
7647;SDS011;3866;48.020;11.720;2024-03-23T13:44:29;3.03;;;2.10;;
7647;SDS011;3866;48.020;11.720;2024-03-23T13:46:55;2.47;;;1.83;;
7647;SDS011;3866;48.020;11.720;2024-03-23T13:49:26;3.63;;;1.90;;
7647;SDS011;3866;48.020;11.720;2024-03-23T13:51:53;1.80;;;1.10;;
7647;SDS011;3866;48.020;11.720;2024-03-23T13:54:20;1.80;;;1.10;;
7647;SDS011;3866;48.020;11.720;2024-03-23T13:56:48;1.80;;;0.80;;
7647;SDS011;3866;48.020;11.720;2024-03-23T13:59:16;1.37;;;1.00;;
7647;SDS011;3866;48.020;11.720;2024-03-23T14:01:42;2.53;;;0.83;;
7647;SDS011;3866;48.020;11.720;2024-03-23T14:04:09;2.87;;;1.00;;
7647;SDS011;3866;48.020;11.720;2024-03-23T14:06:36;1.50;;;1.10;;
7647;SDS011;3866;48.020;11.720;2024-03-23T14:09:03;1.90;;;0.93;;
7647;SDS011;3866;48.020;11.720;2024-03-23T14:11:29;1.00;;;1.00;;
7647;SDS011;3866;48.020;11.720;2024-03-23T14:13:57;1.20;;;1.10;;
7647;SDS011;3866;48.020;11.720;2024-03-23T14:16:23;2.37;;;1.13;;
7647;SDS011;3866;48.020;11.720;2024-03-23T14:18:50;3.40;;;1.70;;
7647;SDS011;3866;48.020;11.720;2024-03-23T14:21:22;3.70;;;1.37;;
7647;SDS011;3866;48.020;11.720;2024-03-23T14:23:49;3.53;;;1.40;;
7647;SDS011;3866;48.020;11.720;2024-03-23T14:26:15;2.97;;;1.53;;
7647;SDS011;3866;48.020;11.720;2024-03-23T14:28:42;3.43;;;1.40;;
7647;SDS011;3866;48.020;11.720;2024-03-23T14:31:09;3.17;;;1.87;;
7647;SDS011;3866;48.020;11.720;2024-03-23T14:33:36;3.07;;;1.93;;
7647;SDS011;3866;48.020;11.720;2024-03-23T14:36:03;3.07;;;2.27;;
7647;SDS011;3866;48.020;11.720;2024-03-23T14:38:30;7.67;;;2.90;;
7647;SDS011;3866;48.020;11.720;2024-03-23T14:40:57;3.73;;;2.50;;
7647;SDS011;3866;48.020;11.720;2024-03-23T14:43:25;5.47;;;3.17;;
7647;SDS011;3866;48.020;11.720;2024-03-23T14:46:06;8.43;;;3.10;;
7647;SDS011;3866;48.020;11.720;2024-03-23T14:48:35;5.60;;;2.90;;
7647;SDS011;3866;48.020;11.720;2024-03-23T14:51:01;7.27;;;2.67;;
7647;SDS011;3866;48.020;11.720;2024-03-23T14:53:30;6.07;;;2.83;;
7647;SDS011;3866;48.020;11.720;2024-03-23T14:55:57;5.10;;;2.33;;
7647;SDS011;3866;48.020;11.720;2024-03-23T14:58:25;3.67;;;2.40;;
7647;SDS011;3866;48.020;11.720;2024-03-23T15:00:51;4.93;;;2.20;;
7647;SDS011;3866;48.020;11.720;2024-03-23T15:03:18;5.90;;;2.30;;
7647;SDS011;3866;48.020;11.720;2024-03-23T15:05:52;4.60;;;2.03;;
7647;SDS011;3866;48.020;11.720;2024-03-23T15:08:20;5.93;;;2.73;;
7647;SDS011;3866;48.020;11.720;2024-03-23T15:10:46;5.53;;;2.93;;
7647;SDS011;3866;48.020;11.720;2024-03-23T15:13:13;9.27;;;2.63;;
7647;SDS011;3866;48.020;11.720;2024-03-23T15:15:39;4.70;;;2.00;;
7647;SDS011;3866;48.020;11.720;2024-03-23T15:18:09;6.93;;;2.90;;
7647;SDS011;3866;48.020;11.720;2024-03-23T15:20:35;5.87;;;2.70;;
7647;SDS011;3866;48.020;11.720;2024-03-23T15:23:03;5.50;;;2.63;;
7647;SDS011;3866;48.020;11.720;2024-03-23T15:25:29;7.27;;;2.60;;
7647;SDS011;3866;48.020;11.720;2024-03-23T15:27:57;6.33;;;2.67;;
7647;SDS011;3866;48.020;11.720;2024-03-23T15:30:24;6.27;;;2.73;;
7647;SDS011;3866;48.020;11.720;2024-03-23T15:32:51;4.70;;;2.43;;
7647;SDS011;3866;48.020;11.720;2024-03-23T15:35:17;7.03;;;2.50;;
7647;SDS011;3866;48.020;11.720;2024-03-23T15:37:44;4.97;;;2.57;;
7647;SDS011;3866;48.020;11.720;2024-03-23T15:40:12;4.73;;;2.80;;
7647;SDS011;3866;48.020;11.720;2024-03-23T15:42:39;6.43;;;2.63;;
7647;SDS011;3866;48.020;11.720;2024-03-23T15:45:06;4.00;;;3.17;;
7647;SDS011;3866;48.020;11.720;2024-03-23T15:47:34;8.07;;;2.80;;
7647;SDS011;3866;48.020;11.720;2024-03-23T15:50:00;6.87;;;2.90;;
7647;SDS011;3866;48.020;11.720;2024-03-23T15:52:33;3.73;;;2.50;;
7647;SDS011;3866;48.020;11.720;2024-03-23T15:54:59;8.37;;;2.60;;
7647;SDS011;3866;48.020;11.720;2024-03-23T15:57:27;5.60;;;3.20;;